sensor_id;sensor_type;location;lat;lon;timestamp;temperature;humidity
2941;DHT22;1480;51.456;6.670;2022-07-22T00:00:05;19.80;89.90
2941;DHT22;1480;51.456;6.670;2022-07-22T00:02:32;19.80;89.40
2941;DHT22;1480;51.456;6.670;2022-07-22T00:05:01;19.80;89.60
2941;DHT22;1480;51.456;6.670;2022-07-22T00:07:28;19.80;89.10
2941;DHT22;1480;51.456;6.670;2022-07-22T00:09:55;19.80;88.80
2941;DHT22;1480;51.456;6.670;2022-07-22T00:12:22;19.80;88.90
2941;DHT22;1480;51.456;6.670;2022-07-22T00:14:49;19.80;88.80
2941;DHT22;1480;51.456;6.670;2022-07-22T00:17:16;19.70;88.50
2941;DHT22;1480;51.456;6.670;2022-07-22T00:19:43;19.70;88.50
2941;DHT22;1480;51.456;6.670;2022-07-22T00:22:11;19.60;88.60
2941;DHT22;1480;51.456;6.670;2022-07-22T00:24:38;19.70;89.30
2941;DHT22;1480;51.456;6.670;2022-07-22T00:27:05;19.60;88.80
2941;DHT22;1480;51.456;6.670;2022-07-22T00:29:32;19.60;88.70
2941;DHT22;1480;51.456;6.670;2022-07-22T00:31:59;19.60;89.40
2941;DHT22;1480;51.456;6.670;2022-07-22T00:34:26;19.60;89.70
2941;DHT22;1480;51.456;6.670;2022-07-22T00:36:53;19.60;88.60
2941;DHT22;1480;51.456;6.670;2022-07-22T00:39:21;19.50;88.50
2941;DHT22;1480;51.456;6.670;2022-07-22T00:41:48;19.60;89.30
2941;DHT22;1480;51.456;6.670;2022-07-22T00:44:15;19.70;89.40
2941;DHT22;1480;51.456;6.670;2022-07-22T00:46:42;19.70;89.10
2941;DHT22;1480;51.456;6.670;2022-07-22T00:49:10;19.80;88.50
2941;DHT22;1480;51.456;6.670;2022-07-22T00:51:37;19.80;88.60
2941;DHT22;1480;51.456;6.670;2022-07-22T00:54:05;19.70;88.80
2941;DHT22;1480;51.456;6.670;2022-07-22T00:56:33;19.80;89.00
2941;DHT22;1480;51.456;6.670;2022-07-22T00:59:05;19.90;88.80
2941;DHT22;1480;51.456;6.670;2022-07-22T01:01:32;19.80;88.40
2941;DHT22;1480;51.456;6.670;2022-07-22T01:03:59;19.90;87.90
2941;DHT22;1480;51.456;6.670;2022-07-22T01:06:26;19.80;87.80
2941;DHT22;1480;51.456;6.670;2022-07-22T01:08:54;19.80;88.10
2941;DHT22;1480;51.456;6.670;2022-07-22T01:11:22;19.70;89.00
2941;DHT22;1480;51.456;6.670;2022-07-22T01:13:52;19.80;88.50
2941;DHT22;1480;51.456;6.670;2022-07-22T01:16:19;19.70;88.50
2941;DHT22;1480;51.456;6.670;2022-07-22T01:18:47;19.70;88.90
2941;DHT22;1480;51.456;6.670;2022-07-22T01:21:16;19.80;88.80
2941;DHT22;1480;51.456;6.670;2022-07-22T01:23:44;19.70;88.20
2941;DHT22;1480;51.456;6.670;2022-07-22T01:26:11;19.80;88.80
2941;DHT22;1480;51.456;6.670;2022-07-22T01:28:39;19.90;88.60
2941;DHT22;1480;51.456;6.670;2022-07-22T01:31:06;19.90;88.00
2941;DHT22;1480;51.456;6.670;2022-07-22T01:33:34;19.70;88.10
2941;DHT22;1480;51.456;6.670;2022-07-22T01:36:02;19.70;89.20
2941;DHT22;1480;51.456;6.670;2022-07-22T01:38:30;19.70;89.40
2941;DHT22;1480;51.456;6.670;2022-07-22T01:40:58;19.90;89.40
2941;DHT22;1480;51.456;6.670;2022-07-22T01:43:26;20.00;89.10
2941;DHT22;1480;51.456;6.670;2022-07-22T01:45:54;20.00;88.80
2941;DHT22;1480;51.456;6.670;2022-07-22T01:48:21;19.90;88.90
2941;DHT22;1480;51.456;6.670;2022-07-22T01:50:49;19.90;89.10
2941;DHT22;1480;51.456;6.670;2022-07-22T01:53:17;19.80;88.30
2941;DHT22;1480;51.456;6.670;2022-07-22T01:55:47;19.80;89.00
2941;DHT22;1480;51.456;6.670;2022-07-22T01:58:16;19.80;89.10
2941;DHT22;1480;51.456;6.670;2022-07-22T02:00:43;19.80;88.30
2941;DHT22;1480;51.456;6.670;2022-07-22T02:03:10;19.70;89.20
2941;DHT22;1480;51.456;6.670;2022-07-22T02:05:38;19.80;88.50
2941;DHT22;1480;51.456;6.670;2022-07-22T02:08:16;19.80;88.40
2941;DHT22;1480;51.456;6.670;2022-07-22T02:11:03;19.80;88.40
2941;DHT22;1480;51.456;6.670;2022-07-22T02:13:30;19.80;88.80
2941;DHT22;1480;51.456;6.670;2022-07-22T02:15:57;19.80;88.60
2941;DHT22;1480;51.456;6.670;2022-07-22T02:18:25;19.70;88.40
2941;DHT22;1480;51.456;6.670;2022-07-22T02:20:52;19.90;88.60
2941;DHT22;1480;51.456;6.670;2022-07-22T02:23:19;19.90;88.00
2941;DHT22;1480;51.456;6.670;2022-07-22T02:25:46;19.90;87.10
2941;DHT22;1480;51.456;6.670;2022-07-22T02:28:15;19.80;87.10
2941;DHT22;1480;51.456;6.670;2022-07-22T02:30:42;19.80;87.60
2941;DHT22;1480;51.456;6.670;2022-07-22T02:33:09;19.70;87.70
2941;DHT22;1480;51.456;6.670;2022-07-22T02:35:36;19.80;87.50
2941;DHT22;1480;51.456;6.670;2022-07-22T02:38:04;19.60;88.30
2941;DHT22;1480;51.456;6.670;2022-07-22T02:40:32;19.60;88.90
2941;DHT22;1480;51.456;6.670;2022-07-22T02:42:59;19.70;88.60
2941;DHT22;1480;51.456;6.670;2022-07-22T02:45:28;19.60;88.90
2941;DHT22;1480;51.456;6.670;2022-07-22T02:47:56;19.60;88.80
2941;DHT22;1480;51.456;6.670;2022-07-22T02:50:25;19.50;89.10
2941;DHT22;1480;51.456;6.670;2022-07-22T02:52:52;19.50;88.10
2941;DHT22;1480;51.456;6.670;2022-07-22T02:55:24;19.50;88.20
2941;DHT22;1480;51.456;6.670;2022-07-22T02:57:53;19.50;88.70
2941;DHT22;1480;51.456;6.670;2022-07-22T03:00:20;19.40;88.50
2941;DHT22;1480;51.456;6.670;2022-07-22T03:02:49;19.50;88.80
2941;DHT22;1480;51.456;6.670;2022-07-22T03:05:16;19.40;88.10
2941;DHT22;1480;51.456;6.670;2022-07-22T03:07:50;19.50;87.10
2941;DHT22;1480;51.456;6.670;2022-07-22T03:10:17;19.70;88.10
2941;DHT22;1480;51.456;6.670;2022-07-22T03:12:44;19.70;87.90
2941;DHT22;1480;51.456;6.670;2022-07-22T03:15:11;19.90;87.20
2941;DHT22;1480;51.456;6.670;2022-07-22T03:17:38;19.90;86.80
2941;DHT22;1480;51.456;6.670;2022-07-22T03:20:09;20.10;86.80
2941;DHT22;1480;51.456;6.670;2022-07-22T03:22:37;20.20;86.60
2941;DHT22;1480;51.456;6.670;2022-07-22T03:25:05;20.20;86.10
2941;DHT22;1480;51.456;6.670;2022-07-22T03:27:32;20.30;85.80
2941;DHT22;1480;51.456;6.670;2022-07-22T03:30:00;20.20;85.80
2941;DHT22;1480;51.456;6.670;2022-07-22T03:32:27;20.20;85.30
2941;DHT22;1480;51.456;6.670;2022-07-22T03:34:54;20.30;85.30
2941;DHT22;1480;51.456;6.670;2022-07-22T03:37:22;20.40;85.60
2941;DHT22;1480;51.456;6.670;2022-07-22T03:39:49;20.30;85.70
2941;DHT22;1480;51.456;6.670;2022-07-22T03:42:16;20.30;85.70
2941;DHT22;1480;51.456;6.670;2022-07-22T03:44:47;20.30;85.90
2941;DHT22;1480;51.456;6.670;2022-07-22T03:47:17;20.30;85.50
2941;DHT22;1480;51.456;6.670;2022-07-22T03:49:45;20.20;84.60
2941;DHT22;1480;51.456;6.670;2022-07-22T03:52:14;20.20;85.00
2941;DHT22;1480;51.456;6.670;2022-07-22T03:54:42;20.30;84.60
2941;DHT22;1480;51.456;6.670;2022-07-22T03:57:10;20.20;84.80
2941;DHT22;1480;51.456;6.670;2022-07-22T03:59:37;20.30;84.60
2941;DHT22;1480;51.456;6.670;2022-07-22T04:02:05;20.20;84.10
2941;DHT22;1480;51.456;6.670;2022-07-22T04:04:32;20.10;83.70
2941;DHT22;1480;51.456;6.670;2022-07-22T04:06:59;20.00;84.00
2941;DHT22;1480;51.456;6.670;2022-07-22T04:09:32;19.90;84.10
2941;DHT22;1480;51.456;6.670;2022-07-22T04:12:01;19.90;84.60
2941;DHT22;1480;51.456;6.670;2022-07-22T04:14:31;19.80;84.60
2941;DHT22;1480;51.456;6.670;2022-07-22T04:16:58;19.90;84.70
2941;DHT22;1480;51.456;6.670;2022-07-22T04:19:25;19.80;84.70
2941;DHT22;1480;51.456;6.670;2022-07-22T04:21:58;19.80;84.50
2941;DHT22;1480;51.456;6.670;2022-07-22T04:24:27;19.90;84.90
2941;DHT22;1480;51.456;6.670;2022-07-22T04:26:56;19.80;85.60
2941;DHT22;1480;51.456;6.670;2022-07-22T04:29:24;19.70;85.50
2941;DHT22;1480;51.456;6.670;2022-07-22T04:31:52;19.80;86.00
2941;DHT22;1480;51.456;6.670;2022-07-22T04:34:19;19.90;85.60
2941;DHT22;1480;51.456;6.670;2022-07-22T04:36:48;20.00;85.40
2941;DHT22;1480;51.456;6.670;2022-07-22T04:39:16;20.10;85.10
2941;DHT22;1480;51.456;6.670;2022-07-22T04:41:49;20.10;85.00
2941;DHT22;1480;51.456;6.670;2022-07-22T04:44:18;20.20;84.80
2941;DHT22;1480;51.456;6.670;2022-07-22T04:46:46;20.20;84.80
2941;DHT22;1480;51.456;6.670;2022-07-22T04:49:13;20.20;84.60
2941;DHT22;1480;51.456;6.670;2022-07-22T04:51:40;20.30;84.40
2941;DHT22;1480;51.456;6.670;2022-07-22T04:54:11;20.40;84.30
2941;DHT22;1480;51.456;6.670;2022-07-22T04:56:42;20.40;83.70
2941;DHT22;1480;51.456;6.670;2022-07-22T04:59:09;20.30;84.10
2941;DHT22;1480;51.456;6.670;2022-07-22T05:01:36;20.40;84.00
2941;DHT22;1480;51.456;6.670;2022-07-22T05:04:06;20.40;83.20
2941;DHT22;1480;51.456;6.670;2022-07-22T05:06:33;20.30;83.60
2941;DHT22;1480;51.456;6.670;2022-07-22T05:09:02;20.40;83.80
2941;DHT22;1480;51.456;6.670;2022-07-22T05:11:30;20.50;84.00
2941;DHT22;1480;51.456;6.670;2022-07-22T05:13:57;20.60;83.10
2941;DHT22;1480;51.456;6.670;2022-07-22T05:16:25;20.70;82.40
2941;DHT22;1480;51.456;6.670;2022-07-22T05:18:52;20.80;82.50
2941;DHT22;1480;51.456;6.670;2022-07-22T05:21:21;20.80;81.90
2941;DHT22;1480;51.456;6.670;2022-07-22T05:23:48;20.90;81.60
2941;DHT22;1480;51.456;6.670;2022-07-22T05:26:16;20.90;80.60
2941;DHT22;1480;51.456;6.670;2022-07-22T05:28:43;20.90;80.40
2941;DHT22;1480;51.456;6.670;2022-07-22T05:31:10;20.80;80.10
2941;DHT22;1480;51.456;6.670;2022-07-22T05:33:38;20.70;80.80
2941;DHT22;1480;51.456;6.670;2022-07-22T05:36:11;20.70;80.90
2941;DHT22;1480;51.456;6.670;2022-07-22T05:38:44;20.70;80.00
2941;DHT22;1480;51.456;6.670;2022-07-22T05:41:11;20.70;80.90
2941;DHT22;1480;51.456;6.670;2022-07-22T05:43:38;20.80;80.40
2941;DHT22;1480;51.456;6.670;2022-07-22T05:46:05;20.70;80.10
2941;DHT22;1480;51.456;6.670;2022-07-22T05:48:34;20.60;80.60
2941;DHT22;1480;51.456;6.670;2022-07-22T05:51:01;20.60;79.70
2941;DHT22;1480;51.456;6.670;2022-07-22T05:53:31;20.70;80.10
2941;DHT22;1480;51.456;6.670;2022-07-22T05:56:00;20.80;81.00
2941;DHT22;1480;51.456;6.670;2022-07-22T05:58:28;21.00;78.90
2941;DHT22;1480;51.456;6.670;2022-07-22T06:00:55;21.10;79.10
2941;DHT22;1480;51.456;6.670;2022-07-22T06:03:23;21.20;78.80
2941;DHT22;1480;51.456;6.670;2022-07-22T06:05:50;21.20;77.00
2941;DHT22;1480;51.456;6.670;2022-07-22T06:08:17;21.10;78.00
2941;DHT22;1480;51.456;6.670;2022-07-22T06:10:50;21.20;78.40
2941;DHT22;1480;51.456;6.670;2022-07-22T06:13:19;21.20;78.60
2941;DHT22;1480;51.456;6.670;2022-07-22T06:15:46;21.10;78.40
2941;DHT22;1480;51.456;6.670;2022-07-22T06:18:14;21.20;77.80
2941;DHT22;1480;51.456;6.670;2022-07-22T06:20:42;21.10;78.00
2941;DHT22;1480;51.456;6.670;2022-07-22T06:23:09;21.10;78.00
2941;DHT22;1480;51.456;6.670;2022-07-22T06:25:37;20.90;76.60
2941;DHT22;1480;51.456;6.670;2022-07-22T06:28:04;20.90;77.80
2941;DHT22;1480;51.456;6.670;2022-07-22T06:30:33;20.90;78.30
2941;DHT22;1480;51.456;6.670;2022-07-22T06:33:01;21.00;78.20
2941;DHT22;1480;51.456;6.670;2022-07-22T06:35:28;20.90;79.70
2941;DHT22;1480;51.456;6.670;2022-07-22T06:37:55;20.90;79.50
2941;DHT22;1480;51.456;6.670;2022-07-22T06:40:24;21.00;78.60
2941;DHT22;1480;51.456;6.670;2022-07-22T06:43:20;20.90;79.20
2941;DHT22;1480;51.456;6.670;2022-07-22T06:46:07;20.90;77.80
2941;DHT22;1480;51.456;6.670;2022-07-22T06:48:50;21.00;78.40
2941;DHT22;1480;51.456;6.670;2022-07-22T06:51:17;20.90;78.40
2941;DHT22;1480;51.456;6.670;2022-07-22T06:53:44;21.00;78.70
2941;DHT22;1480;51.456;6.670;2022-07-22T06:56:12;21.00;77.60
2941;DHT22;1480;51.456;6.670;2022-07-22T06:58:40;20.90;77.00
2941;DHT22;1480;51.456;6.670;2022-07-22T07:01:10;20.70;78.60
2941;DHT22;1480;51.456;6.670;2022-07-22T07:03:48;20.60;79.60
2941;DHT22;1480;51.456;6.670;2022-07-22T07:06:15;20.80;80.10
2941;DHT22;1480;51.456;6.670;2022-07-22T07:09:03;20.80;80.10
2941;DHT22;1480;51.456;6.670;2022-07-22T07:11:32;21.00;78.50
2941;DHT22;1480;51.456;6.670;2022-07-22T07:14:02;21.00;77.90
2941;DHT22;1480;51.456;6.670;2022-07-22T07:16:30;21.10;77.70
2941;DHT22;1480;51.456;6.670;2022-07-22T07:18:57;21.00;78.00
2941;DHT22;1480;51.456;6.670;2022-07-22T07:21:26;21.10;78.20
2941;DHT22;1480;51.456;6.670;2022-07-22T07:23:53;21.30;77.60
2941;DHT22;1480;51.456;6.670;2022-07-22T07:26:21;21.40;77.30
2941;DHT22;1480;51.456;6.670;2022-07-22T07:28:48;21.50;77.20
2941;DHT22;1480;51.456;6.670;2022-07-22T07:31:25;21.60;76.80
2941;DHT22;1480;51.456;6.670;2022-07-22T07:33:54;21.60;77.50
2941;DHT22;1480;51.456;6.670;2022-07-22T07:36:21;21.50;76.80
2941;DHT22;1480;51.456;6.670;2022-07-22T07:38:49;21.60;76.70
2941;DHT22;1480;51.456;6.670;2022-07-22T07:41:16;21.60;76.60
2941;DHT22;1480;51.456;6.670;2022-07-22T07:43:47;21.60;75.60
2941;DHT22;1480;51.456;6.670;2022-07-22T07:46:14;21.50;75.70
2941;DHT22;1480;51.456;6.670;2022-07-22T07:48:41;21.50;75.90
2941;DHT22;1480;51.456;6.670;2022-07-22T07:51:09;21.50;76.20
2941;DHT22;1480;51.456;6.670;2022-07-22T07:53:36;21.50;76.20
2941;DHT22;1480;51.456;6.670;2022-07-22T07:56:04;21.50;76.10
2941;DHT22;1480;51.456;6.670;2022-07-22T07:58:32;21.50;75.00
2941;DHT22;1480;51.456;6.670;2022-07-22T08:00:59;21.50;75.30
2941;DHT22;1480;51.456;6.670;2022-07-22T08:03:26;21.60;74.80
2941;DHT22;1480;51.456;6.670;2022-07-22T08:05:53;21.50;74.50
2941;DHT22;1480;51.456;6.670;2022-07-22T08:08:24;21.60;73.10
2941;DHT22;1480;51.456;6.670;2022-07-22T08:10:52;21.60;73.50
2941;DHT22;1480;51.456;6.670;2022-07-22T08:13:37;21.70;74.40
2941;DHT22;1480;51.456;6.670;2022-07-22T08:16:07;21.70;74.20
2941;DHT22;1480;51.456;6.670;2022-07-22T08:18:34;21.80;74.60
2941;DHT22;1480;51.456;6.670;2022-07-22T08:21:01;21.80;74.50
2941;DHT22;1480;51.456;6.670;2022-07-22T08:23:44;21.90;74.30
2941;DHT22;1480;51.456;6.670;2022-07-22T08:26:12;21.90;73.60
2941;DHT22;1480;51.456;6.670;2022-07-22T08:28:39;22.10;73.00
2941;DHT22;1480;51.456;6.670;2022-07-22T08:31:06;22.10;73.30
2941;DHT22;1480;51.456;6.670;2022-07-22T08:33:33;22.20;72.60
2941;DHT22;1480;51.456;6.670;2022-07-22T08:36:00;22.20;71.60
2941;DHT22;1480;51.456;6.670;2022-07-22T08:38:28;22.20;70.90
2941;DHT22;1480;51.456;6.670;2022-07-22T08:40:57;22.10;70.60
2941;DHT22;1480;51.456;6.670;2022-07-22T08:43:24;22.00;70.90
2941;DHT22;1480;51.456;6.670;2022-07-22T08:45:53;22.00;69.40
2941;DHT22;1480;51.456;6.670;2022-07-22T08:48:21;22.00;69.50
2941;DHT22;1480;51.456;6.670;2022-07-22T08:51:11;21.90;68.90
2941;DHT22;1480;51.456;6.670;2022-07-22T08:53:53;21.80;70.40
2941;DHT22;1480;51.456;6.670;2022-07-22T08:56:22;21.90;69.30
2941;DHT22;1480;51.456;6.670;2022-07-22T08:58:49;22.00;68.60
2941;DHT22;1480;51.456;6.670;2022-07-22T09:01:17;22.00;68.70
2941;DHT22;1480;51.456;6.670;2022-07-22T09:03:50;22.30;69.80
2941;DHT22;1480;51.456;6.670;2022-07-22T09:06:19;22.40;67.70
2941;DHT22;1480;51.456;6.670;2022-07-22T09:08:52;22.50;65.60
2941;DHT22;1480;51.456;6.670;2022-07-22T09:11:39;22.20;64.50
2941;DHT22;1480;51.456;6.670;2022-07-22T09:14:15;22.20;64.40
2941;DHT22;1480;51.456;6.670;2022-07-22T09:16:48;22.30;64.80
2941;DHT22;1480;51.456;6.670;2022-07-22T09:19:34;22.30;65.70
2941;DHT22;1480;51.456;6.670;2022-07-22T09:22:32;22.40;64.80
2941;DHT22;1480;51.456;6.670;2022-07-22T09:25:28;22.50;64.30
2941;DHT22;1480;51.456;6.670;2022-07-22T09:28:23;22.70;64.80
2941;DHT22;1480;51.456;6.670;2022-07-22T09:31:23;22.90;64.90
2941;DHT22;1480;51.456;6.670;2022-07-22T09:33:53;23.10;65.50
2941;DHT22;1480;51.456;6.670;2022-07-22T09:36:22;23.30;65.50
2941;DHT22;1480;51.456;6.670;2022-07-22T09:38:52;23.50;65.00
2941;DHT22;1480;51.456;6.670;2022-07-22T09:41:19;23.70;60.00
2941;DHT22;1480;51.456;6.670;2022-07-22T09:43:47;23.70;59.40
2941;DHT22;1480;51.456;6.670;2022-07-22T09:46:16;23.80;60.00
2941;DHT22;1480;51.456;6.670;2022-07-22T09:49:32;23.70;57.20
2941;DHT22;1480;51.456;6.670;2022-07-22T09:52:18;23.80;60.00
2941;DHT22;1480;51.456;6.670;2022-07-22T09:55:02;23.90;60.30
2941;DHT22;1480;51.456;6.670;2022-07-22T09:57:31;24.10;59.90
2941;DHT22;1480;51.456;6.670;2022-07-22T10:00:00;24.20;59.10
2941;DHT22;1480;51.456;6.670;2022-07-22T10:02:55;24.30;58.40
2941;DHT22;1480;51.456;6.670;2022-07-22T10:05:23;24.50;58.30
2941;DHT22;1480;51.456;6.670;2022-07-22T10:07:52;24.00;55.50
2941;DHT22;1480;51.456;6.670;2022-07-22T10:10:23;23.70;56.60
2941;DHT22;1480;51.456;6.670;2022-07-22T10:12:52;23.70;57.80
2941;DHT22;1480;51.456;6.670;2022-07-22T10:15:22;23.70;58.20
2941;DHT22;1480;51.456;6.670;2022-07-22T10:17:51;23.90;58.40
2941;DHT22;1480;51.456;6.670;2022-07-22T10:20:19;24.00;58.70
2941;DHT22;1480;51.456;6.670;2022-07-22T10:22:49;23.90;60.20
2941;DHT22;1480;51.456;6.670;2022-07-22T10:25:18;23.90;60.20
2941;DHT22;1480;51.456;6.670;2022-07-22T10:27:48;23.90;59.40
2941;DHT22;1480;51.456;6.670;2022-07-22T10:30:17;23.90;60.10
2941;DHT22;1480;51.456;6.670;2022-07-22T10:33:01;23.70;60.30
2941;DHT22;1480;51.456;6.670;2022-07-22T10:35:29;23.80;61.10
2941;DHT22;1480;51.456;6.670;2022-07-22T10:38:05;23.80;60.10
2941;DHT22;1480;51.456;6.670;2022-07-22T10:40:46;23.90;61.20
2941;DHT22;1480;51.456;6.670;2022-07-22T10:43:14;24.10;59.60
2941;DHT22;1480;51.456;6.670;2022-07-22T10:45:45;24.20;58.90
2941;DHT22;1480;51.456;6.670;2022-07-22T10:48:15;24.30;58.10
2941;DHT22;1480;51.456;6.670;2022-07-22T10:50:54;24.50;58.50
2941;DHT22;1480;51.456;6.670;2022-07-22T10:53:38;24.50;58.80
2941;DHT22;1480;51.456;6.670;2022-07-22T10:56:12;24.20;57.50
2941;DHT22;1480;51.456;6.670;2022-07-22T10:58:47;24.00;57.60
2941;DHT22;1480;51.456;6.670;2022-07-22T11:01:16;24.10;58.90
2941;DHT22;1480;51.456;6.670;2022-07-22T11:03:47;24.30;57.60
2941;DHT22;1480;51.456;6.670;2022-07-22T11:06:17;24.50;56.30
2941;DHT22;1480;51.456;6.670;2022-07-22T11:08:46;24.60;58.50
2941;DHT22;1480;51.456;6.670;2022-07-22T11:11:13;24.80;56.80
2941;DHT22;1480;51.456;6.670;2022-07-22T11:13:42;24.90;56.40
2941;DHT22;1480;51.456;6.670;2022-07-22T11:16:19;25.20;55.60
2941;DHT22;1480;51.456;6.670;2022-07-22T11:18:50;25.50;55.70
2941;DHT22;1480;51.456;6.670;2022-07-22T11:21:19;25.60;53.10
2941;DHT22;1480;51.456;6.670;2022-07-22T11:23:48;25.70;54.20
2941;DHT22;1480;51.456;6.670;2022-07-22T11:26:17;26.10;53.00
2941;DHT22;1480;51.456;6.670;2022-07-22T11:28:45;26.30;52.40
2941;DHT22;1480;51.456;6.670;2022-07-22T11:31:15;26.30;51.80
2941;DHT22;1480;51.456;6.670;2022-07-22T11:33:42;26.00;51.80
2941;DHT22;1480;51.456;6.670;2022-07-22T11:36:11;26.20;52.50
2941;DHT22;1480;51.456;6.670;2022-07-22T11:38:43;26.20;50.70
2941;DHT22;1480;51.456;6.670;2022-07-22T11:41:10;25.80;50.80
2941;DHT22;1480;51.456;6.670;2022-07-22T11:43:39;25.60;52.10
2941;DHT22;1480;51.456;6.670;2022-07-22T11:46:06;25.60;53.50
2941;DHT22;1480;51.456;6.670;2022-07-22T11:48:33;25.70;51.50
2941;DHT22;1480;51.456;6.670;2022-07-22T11:51:00;25.50;51.10
2941;DHT22;1480;51.456;6.670;2022-07-22T11:53:29;25.50;52.80
2941;DHT22;1480;51.456;6.670;2022-07-22T11:55:57;25.80;52.30
2941;DHT22;1480;51.456;6.670;2022-07-22T11:58:39;25.80;51.80
2941;DHT22;1480;51.456;6.670;2022-07-22T12:01:08;25.80;50.90
2941;DHT22;1480;51.456;6.670;2022-07-22T12:03:36;25.70;51.10
2941;DHT22;1480;51.456;6.670;2022-07-22T12:06:06;25.50;51.40
2941;DHT22;1480;51.456;6.670;2022-07-22T12:08:39;25.30;51.50
2941;DHT22;1480;51.456;6.670;2022-07-22T12:11:07;25.30;52.20
2941;DHT22;1480;51.456;6.670;2022-07-22T12:13:34;25.50;52.90
2941;DHT22;1480;51.456;6.670;2022-07-22T12:16:20;25.60;52.50
2941;DHT22;1480;51.456;6.670;2022-07-22T12:18:51;25.70;51.70
2941;DHT22;1480;51.456;6.670;2022-07-22T12:21:19;25.70;50.70
2941;DHT22;1480;51.456;6.670;2022-07-22T12:23:53;25.90;50.40
2941;DHT22;1480;51.456;6.670;2022-07-22T12:26:36;25.90;50.00
2941;DHT22;1480;51.456;6.670;2022-07-22T12:29:21;25.90;48.90
2941;DHT22;1480;51.456;6.670;2022-07-22T12:31:50;25.80;50.30
2941;DHT22;1480;51.456;6.670;2022-07-22T12:34:32;25.60;48.70
2941;DHT22;1480;51.456;6.670;2022-07-22T12:37:01;25.60;50.00
2941;DHT22;1480;51.456;6.670;2022-07-22T12:39:38;25.70;51.80
2941;DHT22;1480;51.456;6.670;2022-07-22T12:42:16;25.70;50.10
2941;DHT22;1480;51.456;6.670;2022-07-22T12:44:50;25.80;50.00
2941;DHT22;1480;51.456;6.670;2022-07-22T12:47:47;25.70;50.00
2941;DHT22;1480;51.456;6.670;2022-07-22T12:50:16;25.60;49.50
2941;DHT22;1480;51.456;6.670;2022-07-22T12:52:43;25.60;50.10
2941;DHT22;1480;51.456;6.670;2022-07-22T12:55:12;25.70;48.20
2941;DHT22;1480;51.456;6.670;2022-07-22T12:57:39;25.60;49.80
2941;DHT22;1480;51.456;6.670;2022-07-22T13:00:07;25.50;50.30
2941;DHT22;1480;51.456;6.670;2022-07-22T13:02:34;25.60;49.80
2941;DHT22;1480;51.456;6.670;2022-07-22T13:05:01;25.70;50.40
2941;DHT22;1480;51.456;6.670;2022-07-22T13:07:28;26.00;51.50
2941;DHT22;1480;51.456;6.670;2022-07-22T13:09:55;26.20;49.20
2941;DHT22;1480;51.456;6.670;2022-07-22T13:12:23;26.20;49.00
2941;DHT22;1480;51.456;6.670;2022-07-22T13:14:50;26.20;46.80
2941;DHT22;1480;51.456;6.670;2022-07-22T13:17:17;26.00;47.60
2941;DHT22;1480;51.456;6.670;2022-07-22T13:19:45;26.10;48.70
2941;DHT22;1480;51.456;6.670;2022-07-22T13:22:12;26.20;47.20
2941;DHT22;1480;51.456;6.670;2022-07-22T13:24:39;26.30;48.00
2941;DHT22;1480;51.456;6.670;2022-07-22T13:27:06;26.00;47.60
2941;DHT22;1480;51.456;6.670;2022-07-22T13:29:34;26.00;47.90
2941;DHT22;1480;51.456;6.670;2022-07-22T13:32:01;25.90;48.60
2941;DHT22;1480;51.456;6.670;2022-07-22T13:34:28;25.90;49.70
2941;DHT22;1480;51.456;6.670;2022-07-22T13:36:55;26.00;49.90
2941;DHT22;1480;51.456;6.670;2022-07-22T13:39:22;26.20;50.00
2941;DHT22;1480;51.456;6.670;2022-07-22T13:41:49;26.20;46.90
2941;DHT22;1480;51.456;6.670;2022-07-22T13:44:16;26.20;47.20
2941;DHT22;1480;51.456;6.670;2022-07-22T13:46:45;26.20;48.10
2941;DHT22;1480;51.456;6.670;2022-07-22T13:49:13;26.20;49.60
2941;DHT22;1480;51.456;6.670;2022-07-22T13:51:40;26.30;47.50
2941;DHT22;1480;51.456;6.670;2022-07-22T13:54:07;26.30;48.10
2941;DHT22;1480;51.456;6.670;2022-07-22T13:56:34;26.40;47.20
2941;DHT22;1480;51.456;6.670;2022-07-22T13:59:03;26.50;47.80
2941;DHT22;1480;51.456;6.670;2022-07-22T14:01:30;26.50;46.40
2941;DHT22;1480;51.456;6.670;2022-07-22T14:03:58;26.40;45.90
2941;DHT22;1480;51.456;6.670;2022-07-22T14:06:27;26.50;46.60
2941;DHT22;1480;51.456;6.670;2022-07-22T14:08:54;26.60;46.60
2941;DHT22;1480;51.456;6.670;2022-07-22T14:11:22;26.70;47.20
2941;DHT22;1480;51.456;6.670;2022-07-22T14:13:49;27.00;45.90
2941;DHT22;1480;51.456;6.670;2022-07-22T14:16:16;27.00;44.90
2941;DHT22;1480;51.456;6.670;2022-07-22T14:19:05;26.90;44.90
2941;DHT22;1480;51.456;6.670;2022-07-22T14:21:33;26.90;45.20
2941;DHT22;1480;51.456;6.670;2022-07-22T14:24:00;26.80;45.30
2941;DHT22;1480;51.456;6.670;2022-07-22T14:26:27;26.70;45.70
2941;DHT22;1480;51.456;6.670;2022-07-22T14:28:54;26.70;46.50
2941;DHT22;1480;51.456;6.670;2022-07-22T14:31:21;26.70;45.50
2941;DHT22;1480;51.456;6.670;2022-07-22T14:33:49;26.50;46.20
2941;DHT22;1480;51.456;6.670;2022-07-22T14:36:17;26.40;45.80
2941;DHT22;1480;51.456;6.670;2022-07-22T14:38:44;26.50;46.30
2941;DHT22;1480;51.456;6.670;2022-07-22T14:41:11;26.50;46.10
2941;DHT22;1480;51.456;6.670;2022-07-22T14:43:38;26.60;44.40
2941;DHT22;1480;51.456;6.670;2022-07-22T14:46:05;26.70;45.80
2941;DHT22;1480;51.456;6.670;2022-07-22T14:48:35;26.80;45.00
2941;DHT22;1480;51.456;6.670;2022-07-22T14:51:02;26.80;44.50
2941;DHT22;1480;51.456;6.670;2022-07-22T14:53:31;26.70;44.30
2941;DHT22;1480;51.456;6.670;2022-07-22T14:55:58;26.70;44.60
2941;DHT22;1480;51.456;6.670;2022-07-22T14:58:25;26.80;44.10
2941;DHT22;1480;51.456;6.670;2022-07-22T15:00:52;26.80;44.70
2941;DHT22;1480;51.456;6.670;2022-07-22T15:03:19;27.00;44.70
2941;DHT22;1480;51.456;6.670;2022-07-22T15:05:46;27.00;44.80
2941;DHT22;1480;51.456;6.670;2022-07-22T15:08:13;26.90;44.70
2941;DHT22;1480;51.456;6.670;2022-07-22T15:10:41;27.00;44.00
2941;DHT22;1480;51.456;6.670;2022-07-22T15:13:08;26.80;44.30
2941;DHT22;1480;51.456;6.670;2022-07-22T15:15:35;26.80;45.30
2941;DHT22;1480;51.456;6.670;2022-07-22T15:18:03;26.80;44.40
2941;DHT22;1480;51.456;6.670;2022-07-22T15:20:30;26.90;44.10
2941;DHT22;1480;51.456;6.670;2022-07-22T15:22:57;26.70;44.20
2941;DHT22;1480;51.456;6.670;2022-07-22T15:25:24;26.70;45.20
2941;DHT22;1480;51.456;6.670;2022-07-22T15:27:53;26.70;45.90
2941;DHT22;1480;51.456;6.670;2022-07-22T15:30:20;26.70;44.60
2941;DHT22;1480;51.456;6.670;2022-07-22T15:32:47;26.60;45.00
2941;DHT22;1480;51.456;6.670;2022-07-22T15:35:14;26.50;45.60
2941;DHT22;1480;51.456;6.670;2022-07-22T15:37:41;26.40;46.30
2941;DHT22;1480;51.456;6.670;2022-07-22T15:40:09;26.40;45.90
2941;DHT22;1480;51.456;6.670;2022-07-22T15:42:37;26.40;45.40
2941;DHT22;1480;51.456;6.670;2022-07-22T15:45:06;26.40;45.00
2941;DHT22;1480;51.456;6.670;2022-07-22T15:47:34;26.40;44.50
2941;DHT22;1480;51.456;6.670;2022-07-22T15:50:01;26.40;44.90
2941;DHT22;1480;51.456;6.670;2022-07-22T15:52:28;26.50;45.80
2941;DHT22;1480;51.456;6.670;2022-07-22T15:54:55;26.40;44.40
2941;DHT22;1480;51.456;6.670;2022-07-22T15:57:22;26.40;44.40
2941;DHT22;1480;51.456;6.670;2022-07-22T16:00:09;26.40;45.30
2941;DHT22;1480;51.456;6.670;2022-07-22T16:02:39;26.50;45.50
2941;DHT22;1480;51.456;6.670;2022-07-22T16:05:07;26.60;46.20
2941;DHT22;1480;51.456;6.670;2022-07-22T16:07:34;26.70;46.30
2941;DHT22;1480;51.456;6.670;2022-07-22T16:10:01;26.80;45.00
2941;DHT22;1480;51.456;6.670;2022-07-22T16:12:28;26.90;45.40
2941;DHT22;1480;51.456;6.670;2022-07-22T16:14:55;27.00;46.00
2941;DHT22;1480;51.456;6.670;2022-07-22T16:17:23;26.90;44.60